• Join FlightAware (Why Join?)
  • Login
  • US Flag 
11:18PM EDT


 

Airport Tracker/Info


-or-


 

Live Flight TrackerFlight Track Log ✈ EWG3269 ✈ 15-May-2013 ✈ LFLL / LYS - EDDL / DUS

Flight Track Log - Related Links

Times and Time Zones

All times are in EDT time to prevent confusion due to time zone crossing. See the EWG3269 flight status page for this flight to view local times or setup timezone preferences in your user account.

Time Position Orientation Groundspeed Altitude Reporting Facility
EDT Latitude Longitude Course Direction KTS MPH feet Rate Location/Type
02:12PM 47.0363 5.4529 11° North  Level Estimated
02:13PM 47.1454 5.4839 11° North  Level Estimated
02:14PM 47.2545 5.5149 11° North  Level Estimated
02:15PM 47.3636 5.5462 11° North  Level Estimated
02:16PM 47.4727 5.5775 11° North  Level Estimated
02:17PM 47.5817 5.6090 11° North  Level Estimated
02:18PM 47.6908 5.6406 11° North  Level Estimated
02:19PM 47.7999 5.6724 11° North  Level Estimated
02:20PM 47.9089 5.7042 11° North  Level Estimated
02:21PM 48.0180 5.7363 11° North  Level Estimated
02:22PM 48.1270 5.7684 11° North  Level Estimated
02:23PM 48.2360 5.8007 11° North  Level Estimated
02:24PM 48.3450 5.8331 11° North  Level Estimated
02:25PM 48.4540 5.8657 11° North  Level Estimated
02:26PM 48.5630 5.8984 11° North  Level Estimated
02:27PM 48.6720 5.9313 11° North  Level Estimated
02:28PM 48.7810 5.9643 11° North  Level Estimated
02:29PM 48.8899 5.9974 11° North  Level Estimated
02:30PM 48.9989 6.0307 11° North  Level Estimated
02:31PM 49.1078 6.0641 11° North  Level Estimated
02:32PM 49.2168 6.0977 11° North  Level Estimated
02:33PM 49.3257 6.1314 11° North  Level Estimated
02:34PM 49.4491 6.1698 11° North  Level Estimated
02:35PM 49.5726 6.2084 11° North  Level Estimated
02:36PM 49.6960 6.2472 11° North  Level Estimated
02:37PM 49.8194 6.2861 12° North  Level Estimated
02:38PM 49.9428 6.3253 12° North  Level Estimated
02:39PM 50.0661 6.3647 12° North  Level Estimated
02:40PM 50.1895 6.4043 12° North  Level Estimated
02:41PM 50.3128 6.4441 12° North  Level Estimated
02:42PM 50.4362 6.4841 12° North  Level Estimated
02:43PM 50.5595 6.5243 12° North  Level Estimated
02:44PM 50.6828 6.5647 12° North  Level Estimated
02:45PM 50.8061 6.6053 12° North  Level Estimated
02:46PM 50.9294 6.6462 12° North  Level Estimated
02:47PM 51.0526 6.6873 12° North  Level Estimated
02:48PM 51.1759 6.7285 12° North  Level Estimated
02:49PM 51.2895 6.7668 12° North  Level Estimated
02:50PM 51.2895 6.7668 314° West  Level Estimated
02:51PM 51.2895 6.7668 46° Northeast  Level Estimated
02:52PM 51.2895 6.7668 314° West  Level Estimated
02:53PM 51.2895 6.7668 46° Northeast  Level Estimated
02:54PM 51.2895 6.7668 314° West  Level Estimated
02:55PM 51.2895 6.7668 46° Northeast  Level Estimated
02:56PM 51.2895 6.7668 314° West  Level Estimated
02:57PM 51.2895 6.7668 46° Northeast  Level Estimated
02:58PM 51.2895 6.7668 314° West  Level Estimated
02:59PM 51.2895 6.7668 46° Northeast  Level Estimated
03:00PM 51.2895 6.7668 314° West  Level Estimated
03:01PM 51.2895 6.7668 46° Northeast  Level Estimated